Aérodrome :
LOGIN :

S'inscrire | Disclaimer

   EN    FR    IT 

 










Légende :    VFR   VFR Marginal   IFR   IFR Intensif   IFR Très Intensif
Visi : 
Plafond : 
>= 8 km
>= 3000ft
5 à 8 km
1000 à 3000 ft
1500m à 5 km
500 à 1000 ft
800 à 1500m
200 à 500 ft
< 800m
< 200 ft
Symboles :   Orages  Brouillard  Fortes neiges  Fortes précipitations  Vent > 20 kt
SIGMETs :   Divers  Orages  Givrage  Turbulence  Onde Orograph.  Cendres Volcan.






- Altitude de l'aérodrome : 74 ft
- Code IATA : MRS


LFML - Marseille / Marignane

DERNIER METAR :
  • 132030Z AUTO VRB02KT CAVOK 25/21 Q1014 TEMPO 0600 FG VV///

METARs EXPIRÉS :
  • 132000Z AUTO 22003KT CAVOK 25/22 Q1014 NOSIG
  • 131930Z AUTO 15002KT CAVOK 25/22 Q1014 NOSIG
  • 131900Z AUTO 19003KT CAVOK 25/22 Q1014 NOSIG
  • 131830Z AUTO 22004KT 190V270 CAVOK 26/22 Q1014 NOSIG
  • 131800Z AUTO 20005KT 9999 FEW019 27/22 Q1014 NOSIG

TAF TAF LFML
Valide du 13 à 21h jusqu'au 15 à 03h UTC


132000Z 1321/1503 VRB02KT CAVOK TX32/1414Z TN20/1403Z
PROB40
TEMPO 1321/1408 0600 FG VV///
BECMG 1409/1412 25012KT
BECMG 1418/1420 VRB02KT
ATIS : +33 4 42 31 15 15



MET'MAP, la Météo Aéronautique d'un coup d'oeil ! - Copyright ORBIFLY Décembre 2007 - Disclaimer

ORBIFLY MET'MAP TEAM :

Programmation & Développement : Alexandra Zaïnal
Sur une idée originale de : Baudouin d'Aumeries
Assistance à la programmation : Marc-Olivier Méhu
Soutien technique & logistique : Manuel Goepfert

Contact : metmap@orbifly.com




SOURCES & CREDITS :

   NOAA